Time;durP1;ratioP1;P1;durP2;ratioP2;P2;SDS_P1;SDS_P2;PMS_P1;PMS_P2;Temp;Humidity;BMP_temperature;BMP_pressure;BME280_temperature;BME280_humidity;BME280_pressure;Samples;Min_cycle;Max_cycle;Signal;HPM_P1;HPM_P2
2023/09/25 00:00:37;;;;;;;2.67;1.55;;;;;;;15.47;63.71;102496.47;7391811;19;20026;-63
2023/09/25 00:03:04;;;;;;;3.90;1.75;;;;;;;15.43;64.00;102496.78;7393218;19;20711;-63
2023/09/25 00:05:33;;;;;;;4.95;1.83;;;;;;;15.45;63.84;102498.38;7393195;19;20511;-62
2023/09/25 00:08:00;;;;;;;3.28;1.60;;;;;;;15.41;63.82;102494.19;7392039;19;20738;-61
2023/09/25 00:10:30;;;;;;;2.58;1.52;;;;;;;15.41;63.91;102494.19;7392607;19;20025;-60
2023/09/25 00:12:58;;;;;;;2.22;1.60;;;;;;;15.41;64.04;102488.00;7391183;19;20023;-61
2023/09/25 00:15:26;;;;;;;2.80;1.70;;;;;;;15.38;63.98;102493.53;7391313;19;20029;-62
2023/09/25 00:17:53;;;;;;;2.50;1.58;;;;;;;15.48;63.66;102484.81;7392351;19;20026;-60
2023/09/25 00:20:24;;;;;;;4.50;1.40;;;;;;;15.45;63.81;102487.69;7392560;19;20491;-61
2023/09/25 00:22:51;;;;;;;3.72;1.60;;;;;;;15.47;63.75;102487.59;7392599;19;20015;-60
2023/09/25 00:25:20;;;;;;;4.72;1.60;;;;;;;15.44;63.71;102487.81;7392197;19;20086;-61
2023/09/25 00:27:47;;;;;;;4.43;1.88;;;;;;;15.42;63.78;102493.25;7392091;19;20018;-63
2023/09/25 00:30:15;;;;;;;3.45;1.50;;;;;;;15.45;63.92;102484.16;7391711;19;20011;-60
2023/09/25 00:32:43;;;;;;;4.50;1.58;;;;;;;15.40;63.80;102483.63;7392626;19;20014;-61
2023/09/25 00:35:11;;;;;;;3.22;1.58;;;;;;;15.45;63.83;102482.34;7392977;19;20045;-61
2023/09/25 00:37:39;;;;;;;3.70;1.80;;;;;;;15.48;63.61;102482.16;7393608;19;20022;-60
2023/09/25 00:40:13;;;;;;;2.60;1.60;;;;;;;15.49;63.72;102483.00;7391047;19;20074;-59
2023/09/25 00:42:41;;;;;;;;;;;;;;;15.25;63.87;102478.34;7392416;19;20015;-60
2023/09/25 00:45:10;;;;;;;4.00;1.45;;;;;;;15.17;64.73;102474.47;7390500;19;19982;-60
2023/09/25 00:47:38;;;;;;;2.33;1.40;;;;;;;15.35;64.25;102474.13;7391798;19;20019;-60
2023/09/25 00:50:07;;;;;;;2.20;1.38;;;;;;;15.29;64.31;102479.84;7390579;19;20025;-60
2023/09/25 00:52:37;;;;;;;2.67;1.50;;;;;;;15.31;64.30;102477.09;7391641;19;20086;-61
2023/09/25 00:55:06;;;;;;;2.83;1.60;;;;;;;15.32;64.32;102476.97;7391366;19;20014;-61
2023/09/25 00:57:34;;;;;;;4.05;1.60;;;;;;;15.35;64.10;102478.59;7391542;19;20089;-60
2023/09/25 01:00:03;;;;;;;5.05;1.60;;;;;;;15.24;64.48;102483.78;7391123;19;20502;-60
2023/09/25 01:02:31;;;;;;;4.00;1.70;;;;;;;15.28;64.37;102485.28;7391712;19;20019;-61
2023/09/25 01:05:00;;;;;;;3.50;1.67;;;;;;;15.29;64.29;102477.19;7391015;19;20022;-62
2023/09/25 01:07:29;;;;;;;5.97;1.65;;;;;;;15.31;64.32;102483.28;7391162;19;20039;-62
2023/09/25 01:10:14;;;;;;;4.70;1.70;;;;;;;15.36;64.20;102469.63;7390807;19;20112;-62
2023/09/25 01:12:47;;;;;;;3.15;1.70;;;;;;;15.32;64.27;102471.66;7391390;19;20015;-62
2023/09/25 01:15:15;;;;;;;3.15;1.67;;;;;;;15.19;64.51;102472.56;7390768;19;20018;-62
2023/09/25 01:17:43;;;;;;;4.43;1.90;;;;;;;15.17;64.66;102469.13;7391015;19;20023;-62
2023/09/25 01:20:17;;;;;;;3.45;1.60;;;;;;;15.24;64.60;102473.13;7391189;19;20629;-61
2023/09/25 01:22:49;;;;;;;2.10;1.42;;;;;;;15.28;64.38;102467.47;7391165;19;20018;-63
2023/09/25 01:25:19;;;;;;;3.13;1.73;;;;;;;15.27;64.39;102462.25;7391417;19;20024;-61
2023/09/25 01:27:47;;;;;;;2.65;1.50;;;;;;;15.26;64.39;102461.38;7388906;19;20030;-60
2023/09/25 01:30:17;;;;;;;3.85;1.70;;;;;;;15.24;64.46;102465.09;7390059;19;20015;-61
2023/09/25 01:32:46;;;;;;;3.38;1.67;;;;;;;15.18;64.60;102466.34;7390814;19;20091;-62
2023/09/25 01:35:18;;;;;;;2.65;1.80;;;;;;;15.12;64.81;102466.78;7389457;19;20031;-59
2023/09/25 01:37:46;;;;;;;5.28;2.00;;;;;;;15.12;64.95;102472.09;7396254;19;20018;-60
2023/09/25 01:40:17;;;;;;;2.28;1.63;;;;;;;15.10;65.06;102466.84;7397998;19;20015;-61
2023/09/25 01:42:45;;;;;;;3.92;1.70;;;;;;;14.97;65.44;102457.09;7398153;19;20396;-61
2023/09/25 01:45:18;;;;;;;3.90;2.03;;;;;;;14.98;65.36;102456.13;7395349;19;20604;-60
2023/09/25 01:47:50;;;;;;;3.27;1.80;;;;;;;15.05;65.20;102466.31;7397647;19;20034;-60
2023/09/25 01:50:24;;;;;;;3.47;2.08;;;;;;;14.96;65.46;102458.91;7397621;19;20360;-58
2023/09/25 01:52:57;;;;;;;4.50;1.80;;;;;;;15.00;65.12;102456.91;7397831;19;20033;-62
2023/09/25 01:55:35;;;;;;;3.40;1.65;;;;;;;14.96;65.49;102456.25;7397350;19;20044;-59
2023/09/25 01:58:04;;;;;;;3.25;1.95;;;;;;;14.82;65.91;102456.28;7396481;19;20022;-59
2023/09/25 02:00:32;;;;;;;4.10;2.28;;;;;;;14.90;65.71;102458.44;7397596;19;20456;-59
2023/09/25 02:02:59;;;;;;;3.97;1.80;;;;;;;14.94;65.51;102459.97;7396222;19;20035;-59
2023/09/25 02:05:27;;;;;;;6.57;1.98;;;;;;;14.83;65.85;102461.50;7397926;19;20373;-59
2023/09/25 02:07:55;;;;;;;5.07;2.00;;;;;;;14.85;66.01;102456.94;7394799;19;20022;-60
2023/09/25 02:10:24;;;;;;;3.50;1.80;;;;;;;14.91;65.83;102462.81;7397398;19;20007;-60
2023/09/25 02:12:51;;;;;;;4.75;2.15;;;;;;;14.93;65.80;102466.25;7397234;19;20014;-60
2023/09/25 02:15:19;;;;;;;2.95;1.70;;;;;;;14.95;65.61;102459.00;7396590;19;20010;-60
2023/09/25 02:17:47;;;;;;;4.22;1.83;;;;;;;14.90;65.89;102461.13;7395917;19;20031;-58
2023/09/25 02:20:17;;;;;;;4.80;2.08;;;;;;;14.92;65.66;102459.19;7397741;19;20022;-60
2023/09/25 02:22:47;;;;;;;4.93;1.92;;;;;;;14.82;65.94;102462.47;7396691;19;20022;-59
2023/09/25 02:25:16;;;;;;;4.53;2.30;;;;;;;14.92;65.66;102461.84;7397792;19;20018;-60
2023/09/25 02:27:44;;;;;;;4.25;1.83;;;;;;;14.93;65.52;102456.44;7396211;19;20064;-60
2023/09/25 02:30:12;;;;;;;3.85;1.70;;;;;;;14.88;65.66;102453.19;7396708;19;20488;-60
2023/09/25 02:32:43;;;;;;;5.93;2.30;;;;;;;14.74;66.08;102454.09;7397239;19;20018;-60
2023/09/25 02:35:12;;;;;;;2.33;1.80;;;;;;;14.82;65.91;102457.13;7397551;19;20093;-61
2023/09/25 02:37:40;;;;;;;4.97;2.00;;;;;;;14.78;65.97;102444.09;7396574;19;20007;-61
2023/09/25 02:40:13;;;;;;;7.60;2.20;;;;;;;14.89;65.75;102457.59;7395857;19;20432;-61
2023/09/25 02:42:42;;;;;;;3.83;1.90;;;;;;;14.70;66.13;102451.72;7397174;19;20019;-57
2023/09/25 02:45:10;;;;;;;4.43;2.13;;;;;;;14.72;66.08;102449.81;7397072;19;20018;-56
2023/09/25 02:47:38;;;;;;;4.72;1.90;;;;;;;14.78;65.91;102452.09;7396673;19;20033;-58
2023/09/25 02:50:06;;;;;;;5.70;2.00;;;;;;;14.87;65.68;102451.50;7394506;19;20015;-59
2023/09/25 02:52:34;;;;;;;5.90;1.83;;;;;;;14.85;65.59;102451.59;7394019;19;20015;-57
2023/09/25 02:55:02;;;;;;;3.90;2.08;;;;;;;14.75;65.79;102454.94;7395759;19;20022;-59
2023/09/25 02:57:29;;;;;;;2.90;1.83;;;;;;;14.86;65.62;102455.13;7396108;19;20015;-58
2023/09/25 02:59:57;;;;;;;4.43;1.63;;;;;;;14.90;65.49;102447.78;7395542;19;20050;-60
2023/09/25 03:02:25;;;;;;;4.07;1.77;;;;;;;14.91;65.45;102450.34;7395802;19;20021;-64
2023/09/25 03:04:54;;;;;;;3.13;1.75;;;;;;;14.82;65.58;102450.94;7396049;19;20045;-65
2023/09/25 03:07:21;;;;;;;3.30;1.80;;;;;;;14.84;65.76;102446.34;7394089;19;20512;-63
2023/09/25 03:09:49;;;;;;;2.90;1.70;;;;;;;14.86;65.55;102455.13;7392729;19;20404;-63
2023/09/25 03:12:17;;;;;;;3.50;2.00;;;;;;;14.87;65.69;102462.16;7393798;19;20363;-63
2023/09/25 03:14:44;;;;;;;4.25;1.75;;;;;;;14.85;65.34;102459.59;7396515;19;20018;-63
2023/09/25 03:17:12;;;;;;;6.35;1.90;;;;;;;14.92;65.33;102464.53;7395382;19;20404;-62
2023/09/25 03:19:39;;;;;;;2.60;1.25;;;;;;;14.96;65.20;102455.41;7392454;19;20097;-62
2023/09/25 03:22:07;;;;;;;3.17;1.80;;;;;;;14.93;65.32;102459.09;7395839;19;20331;-63
2023/09/25 03:24:35;;;;;;;3.45;1.60;;;;;;;14.87;65.20;102463.00;7392050;19;20010;-62
2023/09/25 03:27:02;;;;;;;3.88;1.60;;;;;;;14.83;65.51;102453.50;7393169;19;20018;-63
2023/09/25 03:29:30;;;;;;;3.95;1.63;;;;;;;14.95;65.23;102459.00;7389743;19;20053;-63
2023/09/25 03:31:57;;;;;;;2.38;1.55;;;;;;;14.95;65.10;102459.84;7392356;19;20010;-63
2023/09/25 03:34:25;;;;;;;4.28;1.55;;;;;;;14.94;65.19;102463.47;7393549;19;20018;-64
2023/09/25 03:36:52;;;;;;;3.22;1.83;;;;;;;14.98;64.99;102456.13;7393477;19;20029;-63
2023/09/25 03:39:20;;;;;;;4.28;1.90;;;;;;;15.00;65.09;102457.75;7391849;19;20022;-63
2023/09/25 03:41:47;;;;;;;3.38;1.60;;;;;;;15.00;65.18;102464.91;7392891;19;20345;-63
2023/09/25 03:44:15;;;;;;;4.55;1.55;;;;;;;14.99;65.14;102460.50;7393666;19;20037;-67
2023/09/25 03:46:42;;;;;;;3.83;1.63;;;;;;;14.97;65.12;102457.94;7393586;19;20026;-67
2023/09/25 03:49:10;;;;;;;2.78;1.58;;;;;;;14.93;65.39;102466.25;7390943;19;20020;-67
2023/09/25 03:51:38;;;;;;;2.90;1.50;;;;;;;14.90;65.72;102461.13;7392204;19;20491;-68
2023/09/25 03:54:05;;;;;;;3.38;1.42;;;;;;;14.86;65.62;102463.13;7393077;19;20010;-66
2023/09/25 03:56:33;;;;;;;3.40;1.70;;;;;;;14.75;65.92;102468.28;7391513;19;20040;-66
2023/09/25 03:59:01;;;;;;;4.15;1.80;;;;;;;14.80;65.66;102468.84;7389644;19;20061;-66
2023/09/25 04:01:28;;;;;;;2.13;1.52;;;;;;;14.78;65.77;102457.44;7392876;19;20015;-66
2023/09/25 04:03:56;;;;;;;3.25;1.50;;;;;;;14.85;65.67;102469.41;7393474;19;20039;-66
2023/09/25 04:06:23;;;;;;;2.97;1.63;;;;;;;14.81;65.67;102465.25;7393009;19;20401;-66
2023/09/25 04:08:51;;;;;;;4.13;1.80;;;;;;;14.83;65.50;102477.50;7390120;19;20488;-67
2023/09/25 04:11:19;;;;;;;2.80;1.50;;;;;;;14.83;65.61;102469.50;7392852;19;20035;-67
2023/09/25 04:13:47;;;;;;;3.33;1.80;;;;;;;14.81;65.52;102470.56;7393185;19;20078;-64
2023/09/25 04:16:14;;;;;;;3.60;1.80;;;;;;;14.78;65.89;102466.28;7392495;19;20363;-64
2023/09/25 04:18:45;;;;;;;3.08;1.70;;;;;;;14.78;65.94;102468.94;7391396;19;20480;-65
2023/09/25 04:21:17;;;;;;;3.47;1.80;;;;;;;14.73;66.07;102471.06;7392229;19;20129;-67
2023/09/25 04:23:45;;;;;;;2.50;1.40;;;;;;;14.78;65.78;102460.09;7392330;19;20043;-67
2023/09/25 04:26:13;;;;;;;4.15;1.70;;;;;;;14.66;66.17;102459.06;7392455;19;20052;-67
2023/09/25 04:28:40;;;;;;;4.82;1.90;;;;;;;14.69;65.99;102458.88;7389328;19;20038;-67
2023/09/25 04:31:10;;;;;;;3.47;1.75;;;;;;;14.75;65.75;102458.47;7391352;19;20085;-67
2023/09/25 04:33:38;;;;;;;5.78;1.65;;;;;;;14.65;66.12;102460.00;7391850;19;20023;-65
2023/09/25 04:36:10;;;;;;;3.13;1.73;;;;;;;14.70;66.01;102457.91;7391817;19;20122;-66
2023/09/25 04:38:38;;;;;;;2.65;1.60;;;;;;;14.72;66.07;102449.81;7390283;19;20018;-66
2023/09/25 04:41:06;;;;;;;3.17;1.50;;;;;;;14.65;66.28;102454.66;7390622;19;20027;-66
2023/09/25 04:43:34;;;;;;;4.65;1.98;;;;;;;14.63;66.18;102456.59;7391772;19;20011;-65
2023/09/25 04:46:01;;;;;;;2.65;1.50;;;;;;;14.66;66.19;102464.41;7391944;19;20022;-66
2023/09/25 04:48:29;;;;;;;2.50;1.50;;;;;;;14.55;66.76;102470.41;7389447;19;20022;-66
2023/09/25 04:50:57;;;;;;;3.45;1.70;;;;;;;14.55;66.75;102464.22;7391670;19;20014;-66
2023/09/25 04:53:25;;;;;;;3.38;1.90;;;;;;;14.58;66.51;102461.38;7389878;19;20374;-66
2023/09/25 04:55:53;;;;;;;3.95;2.00;;;;;;;14.54;66.64;102457.19;7390952;19;20034;-66
2023/09/25 04:58:20;;;;;;;4.18;2.05;;;;;;;14.50;66.73;102458.31;7389748;19;20368;-66
2023/09/25 05:00:48;;;;;;;4.55;1.80;;;;;;;14.50;66.72;102447.63;7391233;19;20025;-66
2023/09/25 05:03:16;;;;;;;3.17;1.88;;;;;;;14.45;66.92;102444.38;7390970;19;20010;-66
2023/09/25 05:05:44;;;;;;;2.90;1.65;;;;;;;14.57;66.50;102447.16;7391152;19;20022;-66
2023/09/25 05:08:12;;;;;;;2.85;1.83;;;;;;;14.56;66.60;102449.94;7389929;19;20029;-66
2023/09/25 05:10:41;;;;;;;6.15;1.90;;;;;;;14.48;66.78;102446.88;7393179;19;20100;-66
2023/09/25 05:13:09;;;;;;;4.32;2.25;;;;;;;14.37;67.07;102453.72;7395804;19;20022;-65
2023/09/25 05:15:54;;;;;;;3.13;1.98;;;;;;;14.46;66.98;102449.63;7396993;19;20025;-67
2023/09/25 05:18:26;;;;;;;3.35;1.95;;;;;;;14.41;66.95;102446.38;7396666;19;20014;-65
2023/09/25 05:20:54;;;;;;;5.95;2.22;;;;;;;14.46;66.86;102446.97;7399055;19;20353;-65
2023/09/25 05:23:21;;;;;;;2.83;1.90;;;;;;;14.47;66.81;102450.50;7398687;19;20014;-65
2023/09/25 05:25:49;;;;;;;4.00;2.10;;;;;;;14.42;66.85;102444.56;7397869;19;20027;-66
2023/09/25 05:28:17;;;;;;;6.38;2.17;;;;;;;14.46;66.75;102446.09;7396289;19;20077;-66
2023/09/25 05:30:44;;;;;;;4.05;2.00;;;;;;;14.56;66.47;102450.78;7397843;19;20028;-66
2023/09/25 05:33:12;;;;;;;3.60;1.85;;;;;;;14.56;66.53;102448.13;7395674;19;20405;-66
2023/09/25 05:35:39;;;;;;;4.80;2.00;;;;;;;14.53;66.56;102447.44;7398233;19;20015;-69
2023/09/25 05:38:07;;;;;;;3.20;1.70;;;;;;;14.58;66.43;102445.38;7396120;19;20039;-64
2023/09/25 05:40:35;;;;;;;3.50;1.80;;;;;;;14.59;66.33;102447.94;7397102;19;20459;-63
2023/09/25 05:43:02;;;;;;;3.70;1.95;;;;;;;14.54;66.69;102446.53;7395756;19;20391;-66
2023/09/25 05:45:31;;;;;;;3.55;2.05;;;;;;;14.65;66.41;102445.81;7397616;19;20038;-66
2023/09/25 05:47:59;;;;;;;4.07;1.98;;;;;;;14.61;66.42;102447.81;7396310;19;20022;-66
2023/09/25 05:50:26;;;;;;;3.50;2.17;;;;;;;14.55;66.60;102449.06;7398092;19;20047;-66
2023/09/25 05:52:54;;;;;;;7.28;2.13;;;;;;;14.59;66.39;102447.06;7396800;19;20021;-68
2023/09/25 05:55:22;;;;;;;5.50;2.10;;;;;;;14.65;66.31;102445.81;7395571;19;20036;-66
2023/09/25 05:57:50;;;;;;;3.72;2.00;;;;;;;14.69;66.12;102447.34;7396272;19;20015;-66
2023/09/25 06:00:18;;;;;;;4.15;1.90;;;;;;;14.60;66.35;102433.63;7397192;19;20011;-66
2023/09/25 06:02:46;;;;;;;2.97;1.73;;;;;;;14.69;65.95;102439.34;7396720;19;20360;-67
2023/09/25 06:05:15;;;;;;;3.90;2.00;;;;;;;14.60;66.52;102443.44;7396472;19;20022;-67
2023/09/25 06:07:43;;;;;;;4.40;2.20;;;;;;;14.70;66.04;102441.06;7396223;19;20022;-67
2023/09/25 06:10:11;;;;;;;5.03;2.22;;;;;;;14.72;65.97;102442.66;7396164;19;20414;-67
2023/09/25 06:12:39;;;;;;;4.45;2.10;;;;;;;14.68;66.01;102448.28;7393650;19;20026;-65
2023/09/25 06:15:11;;;;;;;5.28;1.92;;;;;;;14.71;66.07;102443.63;7396521;19;20015;-65
2023/09/25 06:17:39;;;;;;;4.68;2.00;;;;;;;14.73;66.04;102446.19;7396568;19;20014;-65
2023/09/25 06:20:15;;;;;;;5.03;2.10;;;;;;;14.71;65.91;102446.28;7395620;19;20043;-65
2023/09/25 06:22:46;;;;;;;4.70;1.92;;;;;;;14.71;66.21;102443.63;7395115;19;20078;-65
2023/09/25 06:25:17;;;;;;;4.53;2.20;;;;;;;14.77;65.97;102445.06;7396251;19;20082;-65
2023/09/25 06:27:46;;;;;;;6.60;1.95;;;;;;;14.70;66.18;102449.91;7395140;19;20019;-66
2023/09/25 06:30:15;;;;;;;5.05;2.20;;;;;;;14.77;66.20;102451.25;7395880;19;20435;-62
2023/09/25 06:32:44;;;;;;;7.00;2.38;;;;;;;14.87;65.88;102446.16;7394481;19;20011;-62
2023/09/25 06:35:12;;;;;;;3.00;1.90;;;;;;;14.87;65.90;102451.50;7395923;19;20010;-66
2023/09/25 06:37:40;;;;;;;4.53;2.10;;;;;;;14.88;65.72;102442.53;7395649;19;20023;-66
2023/09/25 06:40:11;;;;;;;6.72;2.30;;;;;;;14.81;66.02;102441.22;7394842;19;20483;-66
2023/09/25 06:42:39;;;;;;;4.07;2.03;;;;;;;14.98;65.54;102445.47;7395748;19;20527;-66
2023/09/25 06:45:08;;;;;;;3.33;2.00;;;;;;;14.98;65.62;102442.78;7395288;19;20042;-66
2023/09/25 06:47:36;;;;;;;4.60;2.25;;;;;;;14.99;65.70;102452.50;7395141;19;20026;-66
2023/09/25 06:50:05;;;;;;;4.95;2.08;;;;;;;14.95;65.83;102457.19;7395035;19;20018;-66
2023/09/25 06:52:33;;;;;;;4.43;2.10;;;;;;;15.00;65.77;102464.91;7394070;19;20043;-66
2023/09/25 06:55:00;;;;;;;4.38;1.90;;;;;;;15.13;65.27;102462.28;7394989;19;20018;-66
2023/09/25 06:57:28;;;;;;;6.40;2.20;;;;;;;15.21;65.31;102468.81;7394671;19;20106;-66
2023/09/25 06:59:56;;;;;;;5.97;2.20;;;;;;;15.24;65.04;102473.13;7394761;19;20018;-66
2023/09/25 07:02:25;;;;;;;4.80;2.33;;;;;;;15.30;64.94;102476.25;7395693;19;20021;-66
2023/09/25 07:04:52;;;;;;;3.67;2.20;;;;;;;15.25;65.03;102470.34;7394631;19;20042;-66
2023/09/25 07:07:20;;;;;;;3.60;2.15;;;;;;;15.22;65.21;102478.53;7394298;19;20015;-66
2023/09/25 07:09:48;;;;;;;3.42;2.00;;;;;;;15.32;65.06;102476.13;7392205;19;20355;-66
2023/09/25 07:12:18;;;;;;;4.85;2.30;;;;;;;15.42;64.77;102477.25;7393640;19;20010;-66
2023/09/25 07:14:55;;;;;;;4.68;2.40;;;;;;;15.46;64.61;102483.22;7394693;19;20022;-66
2023/09/25 07:17:24;;;;;;;4.15;2.50;;;;;;;15.45;65.08;102478.81;7394294;19;20558;-66
2023/09/25 07:19:52;;;;;;;7.68;2.83;;;;;;;15.51;64.72;102479.28;7391570;19;20519;-66
2023/09/25 07:22:21;;;;;;;4.20;2.55;;;;;;;15.55;64.64;102483.47;7393925;19;20046;-65
2023/09/25 07:24:50;;;;;;;3.20;2.10;;;;;;;15.63;64.46;102482.09;7392640;19;20043;-65
2023/09/25 07:27:18;;;;;;;4.32;2.08;;;;;;;15.65;64.16;102480.19;7394368;19;20538;-65
2023/09/25 07:29:47;;;;;;;3.15;2.00;;;;;;;15.65;64.30;102475.72;7391859;19;20389;-66
2023/09/25 07:32:18;;;;;;;6.45;1.90;;;;;;;15.75;64.05;102476.78;7392382;19;20022;-64
2023/09/25 07:34:45;;;;;;;4.45;2.08;;;;;;;15.75;63.96;102482.13;7391838;19;20036;-64
2023/09/25 07:37:13;;;;;;;5.22;2.10;;;;;;;15.79;63.84;102477.44;7394245;19;20043;-66
2023/09/25 07:39:40;;;;;;;4.18;2.03;;;;;;;15.83;63.64;102489.63;7391288;19;20022;-65
2023/09/25 07:42:09;;;;;;;2.35;1.85;;;;;;;15.76;63.80;102481.19;7393919;19;20034;-65
2023/09/25 07:44:38;;;;;;;5.10;2.35;;;;;;;15.73;63.99;102480.56;7393354;19;20491;-65
2023/09/25 07:47:12;;;;;;;3.58;2.00;;;;;;;15.69;64.25;102479.06;7391542;19;20014;-65
2023/09/25 07:49:44;;;;;;;5.95;2.00;;;;;;;15.78;64.25;102476.59;7390945;19;20031;-65
2023/09/25 07:52:16;;;;;;;4.38;1.80;;;;;;;15.94;63.89;102489.75;7392876;19;20038;-65
2023/09/25 07:54:48;;;;;;;2.55;1.60;;;;;;;15.95;63.85;102495.94;7393387;19;20022;-66
2023/09/25 07:57:21;;;;;;;4.30;1.88;;;;;;;15.99;64.07;102495.66;7393178;19;20479;-65
2023/09/25 07:59:49;;;;;;;3.60;1.92;;;;;;;16.09;63.79;102483.34;7391346;19;20031;-67
2023/09/25 08:02:18;;;;;;;4.00;2.10;;;;;;;16.15;63.78;102483.91;7392785;19;20015;-67
2023/09/25 08:04:47;;;;;;;3.65;2.08;;;;;;;16.13;63.54;102478.66;7392659;19;20369;-67
2023/09/25 08:07:15;;;;;;;4.15;2.10;;;;;;;16.21;63.82;102481.63;7392862;19;20030;-67
2023/09/25 08:09:42;;;;;;;3.88;1.92;;;;;;;16.22;63.61;102487.88;7388915;19;20074;-66
2023/09/25 08:12:10;;;;;;;4.22;1.90;;;;;;;16.32;63.36;102483.56;7392232;19;20022;-66
2023/09/25 08:14:37;;;;;;;2.78;1.80;;;;;;;16.40;63.53;102485.69;7392485;19;20021;-66
2023/09/25 08:17:05;;;;;;;4.72;2.05;;;;;;;16.50;63.41;102478.75;7392429;19;20014;-66
2023/09/25 08:19:33;;;;;;;4.53;2.00;;;;;;;16.51;63.12;102475.09;7390421;19;20014;-66
2023/09/25 08:22:00;;;;;;;4.15;1.90;;;;;;;16.51;63.27;102473.28;7392409;19;20018;-66
2023/09/25 08:24:28;;;;;;;3.92;1.88;;;;;;;16.64;63.15;102478.63;7392975;19;20039;-66
2023/09/25 08:26:57;;;;;;;4.68;1.90;;;;;;;16.62;63.13;102466.31;7392435;19;20048;-66
2023/09/25 08:29:24;;;;;;;3.47;1.73;;;;;;;16.70;63.30;102467.47;7390221;19;20025;-66
2023/09/25 08:31:52;;;;;;;3.65;2.25;;;;;;;16.78;63.12;102472.28;7390613;19;20022;-66
2023/09/25 08:34:20;;;;;;;6.57;1.90;;;;;;;16.85;62.84;102476.22;7390597;19;20039;-66
2023/09/25 08:36:47;;;;;;;4.30;1.92;;;;;;;16.93;62.94;102483.72;7391762;19;20112;-66
2023/09/25 08:39:15;;;;;;;4.80;2.00;;;;;;;16.98;62.97;102484.22;7389805;19;20023;-66
2023/09/25 08:41:43;;;;;;;4.93;1.67;;;;;;;17.03;63.09;102482.94;7391661;19;20405;-66
2023/09/25 08:44:14;;;;;;;5.25;2.00;;;;;;;17.10;62.71;102487.84;7389505;19;20018;-66
2023/09/25 08:46:43;;;;;;;5.13;1.92;;;;;;;17.07;62.58;102482.72;7391784;19;20034;-65
2023/09/25 08:49:11;;;;;;;4.95;1.70;;;;;;;17.14;62.58;102478.63;7390045;19;20014;-66
2023/09/25 08:51:39;;;;;;;5.97;1.80;;;;;;;17.22;62.72;102487.78;7394611;19;20015;-66
2023/09/25 08:54:07;;;;;;;2.17;1.70;;;;;;;17.29;62.82;102480.16;7395460;19;20006;-67
2023/09/25 08:56:35;;;;;;;5.10;1.80;;;;;;;17.24;62.42;102479.63;7397897;19;20026;-67
2023/09/25 08:59:04;;;;;;;5.55;2.10;;;;;;;17.30;62.75;102471.16;7390068;19;20019;-67
2023/09/25 09:01:31;;;;;;;3.55;1.90;;;;;;;17.36;62.86;102464.47;7390022;19;20038;-67
2023/09/25 09:04:02;;;;;;;5.40;1.80;;;;;;;17.41;62.74;102463.16;7392748;19;20015;-67
2023/09/25 09:06:29;;;;;;;7.00;1.80;;;;;;;17.44;62.63;102462.94;7392529;19;20026;-67
2023/09/25 09:08:57;;;;;;;5.03;2.00;;;;;;;17.50;62.43;102465.13;7390380;19;20043;-65
2023/09/25 09:11:25;;;;;;;5.85;1.85;;;;;;;17.53;62.55;102456.88;7391851;19;20014;-65
2023/09/25 09:13:52;;;;;;;4.80;1.73;;;;;;;17.58;62.15;102458.34;7389828;19;20015;-66
2023/09/25 09:16:20;;;;;;;4.20;1.92;;;;;;;17.61;62.49;102453.59;7390794;19;20054;-66
2023/09/25 09:18:48;;;;;;;4.10;1.63;;;;;;;17.63;62.18;102448.13;7389079;19;20039;-65
2023/09/25 09:21:29;;;;;;;4.85;1.70;;;;;;;17.68;62.16;102449.50;7390614;19;20018;-64
2023/09/25 09:23:58;;;;;;;6.18;1.65;;;;;;;17.64;62.11;102445.34;7391006;19;20367;-65
2023/09/25 09:26:25;;;;;;;4.25;1.70;;;;;;;17.71;62.06;102443.91;7390673;19;20011;-66
2023/09/25 09:29:56;;;;;;;3.10;1.58;;;;;;;17.74;61.81;102438.31;7424809;19;20345;-65
2023/09/25 09:32:26;;;;;;;3.03;1.50;;;;;;;17.83;61.17;102439.44;7428316;19;20328;-65
2023/09/25 09:34:54;;;;;;;5.15;1.70;;;;;;;17.86;61.12;102438.34;7427607;19;20086;-65
2023/09/25 09:37:21;;;;;;;4.28;1.50;;;;;;;17.90;60.25;102438.00;7425953;19;20014;-65
2023/09/25 09:39:52;;;;;;;3.10;1.63;;;;;;;17.91;59.54;102433.50;7424419;19;20090;-66
2023/09/25 09:42:21;;;;;;;2.53;1.38;;;;;;;17.98;59.80;102437.41;7428088;19;20420;-66
2023/09/25 09:44:48;;;;;;;3.17;1.30;;;;;;;18.07;59.45;102441.19;7430836;19;20096;-66
2023/09/25 09:47:20;;;;;;;3.88;1.35;;;;;;;18.16;59.22;102440.44;7427465;19;20369;-66
2023/09/25 09:49:49;;;;;;;3.08;1.27;;;;;;;18.13;58.78;102446.94;7425893;19;20035;-65
2023/09/25 09:52:19;;;;;;;4.10;1.48;;;;;;;18.20;59.02;102447.28;7429172;19;20035;-65
2023/09/25 09:54:48;;;;;;;3.13;1.50;;;;;;;18.25;58.44;102437.91;7428950;19;20042;-65
2023/09/25 09:57:16;;;;;;;3.08;1.40;;;;;;;18.35;57.91;102437.16;7430225;19;20026;-65
2023/09/25 09:59:43;;;;;;;5.00;1.27;;;;;;;18.44;57.93;102433.75;7426681;19;20014;-65
2023/09/25 10:02:11;;;;;;;3.53;1.60;;;;;;;18.53;57.77;102427.63;7427653;19;20473;-65
2023/09/25 10:04:39;;;;;;;4.22;1.33;;;;;;;18.59;57.25;102427.16;7427412;19;20018;-65
2023/09/25 10:07:08;;;;;;;3.28;1.40;;;;;;;18.66;57.02;102427.50;7429140;19;20367;-65
2023/09/25 10:09:37;;;;;;;3.50;1.50;;;;;;;18.68;57.30;102423.72;7426560;19;20010;-65
2023/09/25 10:12:05;;;;;;;4.18;1.50;;;;;;;18.69;56.75;102428.09;7430251;19;20478;-66
2023/09/25 10:14:40;;;;;;;2.63;1.40;;;;;;;18.72;56.41;102417.16;7429999;19;20086;-66
2023/09/25 10:17:08;;;;;;;2.15;1.23;;;;;;;18.67;56.50;102422.00;7426638;19;20026;-66
2023/09/25 10:19:35;;;;;;;6.32;1.38;;;;;;;18.71;55.97;102425.34;7421685;19;20014;-66
2023/09/25 10:22:12;;;;;;;3.33;1.35;;;;;;;18.79;55.04;102422.03;7426256;19;20514;-66
2023/09/25 10:24:45;;;;;;;1.90;1.35;;;;;;;18.77;54.97;102418.59;7426094;19;20018;-66
2023/09/25 10:27:17;;;;;;;3.55;1.70;;;;;;;18.78;54.63;102415.81;7426086;19;20368;-66
2023/09/25 10:30:05;;;;;;;2.53;1.20;;;;;;;18.89;54.39;102415.78;7423138;19;20082;-65
2023/09/25 10:32:35;;;;;;;3.00;1.10;;;;;;;18.87;55.15;102416.88;7426378;19;20010;-66
2023/09/25 10:35:38;;;;;;;3.17;1.48;;;;;;;19.04;54.53;102415.47;7426402;19;20023;-66
2023/09/25 10:38:09;;;;;;;2.97;1.40;;;;;;;19.03;54.54;102406.56;7423135;19;20018;-66
2023/09/25 10:40:59;;;;;;;2.30;1.23;;;;;;;19.12;53.75;102405.81;7400931;19;20068;-66
2023/09/25 10:43:28;;;;;;;5.30;1.40;;;;;;;19.14;53.70;102398.47;7395688;19;20032;-66
2023/09/25 10:45:55;;;;;;;3.85;1.30;;;;;;;19.14;53.12;102400.31;7397025;19;20034;-66
2023/09/25 10:48:24;;;;;;;2.22;1.30;;;;;;;19.20;52.83;102395.28;7399114;19;20405;-66
2023/09/25 10:50:52;;;;;;;3.38;1.25;;;;;;;19.20;52.84;102395.28;7396731;19;20047;-66
2023/09/25 10:53:21;;;;;;;2.35;1.10;;;;;;;19.20;52.22;102397.09;7396718;19;20019;-66
2023/09/25 10:55:49;;;;;;;2.15;1.20;;;;;;;19.28;51.84;102388.41;7396118;19;20348;-64
2023/09/25 10:58:18;;;;;;;5.70;1.48;;;;;;;19.38;51.95;102384.78;7394439;19;20186;-64
2023/09/25 11:00:49;;;;;;;2.35;1.20;;;;;;;19.45;51.89;102383.28;7395365;19;20039;-64
2023/09/25 11:03:18;;;;;;;2.83;1.20;;;;;;;19.46;52.04;102378.78;7395332;19;20014;-63
2023/09/25 11:05:47;;;;;;;3.50;1.25;;;;;;;19.46;51.63;102378.78;7395272;19;20026;-63
2023/09/25 11:08:16;;;;;;;2.90;1.20;;;;;;;19.47;51.12;102380.47;7394783;19;20034;-64
2023/09/25 11:10:45;;;;;;;2.72;1.00;;;;;;;19.54;50.70;102375.44;7394187;19;20015;-64
2023/09/25 11:13:13;;;;;;;2.90;1.20;;;;;;;19.65;50.95;102375.38;7395111;19;20039;-66
2023/09/25 11:15:41;;;;;;;2.22;1.33;;;;;;;19.68;50.52;102375.97;7394165;19;20105;-66
2023/09/25 11:18:10;;;;;;;3.22;1.40;;;;;;;19.77;50.39;102368.09;7395277;19;20043;-66
2023/09/25 11:20:38;;;;;;;3.03;1.30;;;;;;;19.86;49.92;102375.34;7395746;19;20018;-66
2023/09/25 11:23:11;;;;;;;4.63;1.48;;;;;;;19.94;49.69;102370.16;7395300;19;20034;-64
2023/09/25 11:25:52;;;;;;;4.10;1.50;;;;;;;19.98;49.93;102366.22;7395587;19;20360;-66
2023/09/25 11:28:21;;;;;;;3.33;1.35;;;;;;;20.03;49.46;102369.34;7393504;19;20507;-63
2023/09/25 11:30:50;;;;;;;4.03;1.40;;;;;;;20.08;49.96;102372.50;7394620;19;20367;-63
2023/09/25 11:33:23;;;;;;;2.83;1.38;;;;;;;20.17;50.15;102366.28;7394629;19;20014;-63